Terminal Aerodrome Forecast
Issued by NWS

Home | Current Version | Previous Version | Text Only | Print | Product List | Glossary Off
Versions: 1 2 3 4 5 6 7 8 9 10 11 12 13 14 15 16 17 18 19 20 21 22 23 24 25 26 27 28 29 30 31 32 33 34 35 36 37
000 FTUS41 KGYX 041720 TAFMHT TAF KMHT 041720Z 0418/0518 06005G16KT P6SM SCT060 SCT180 BKN250 FM042100 10006KT P6SM SKC FM050100 VRB03KT P6SM SKC=

USA.gov is the U.S. government's official web portal to all federal, state and local government web resources and services.